N1001 SBBR-SBCY
Flight info
| Callsign | N1001 |
|---|---|
| Flight time | 1h 25m |
| Altitude | 32000 |
| Route | SIREM DCT LODOV DCT MABMA DCT SINIP |
| Aircraft | B738/M-SDE2E3FGHIRWXY/LB1 |
Departure
| Time | 2026-05-08 18:05 |
|---|---|
| Airport | Presidente Juscelino Kubitschek International Airport (SBBR) |
Arrival
| Time | 2026-05-08 19:31 |
|---|---|
| Airport | Várzea Grande–Marechal Rondon International Airport (SBCY) |
| Time | Latitude | Longitude | Altitude | Speed | Heading |
|---|---|---|---|---|---|
| 2026-05-08 17:47 | -15.86687 | -47.92312 | 3471 ft | 0 kts | 206° |
| 2026-05-08 17:59 | -15.86672 | -47.92305 | 3469 ft | 3 kts | 206° |
| 2026-05-08 17:59 | -15.86661 | -47.92299 | 3469 ft | 3 kts | 206° |
| 2026-05-08 18:00 | -15.86644 | -47.92291 | 3471 ft | 3 kts | 206° |
| 2026-05-08 18:00 | -15.86616 | -47.92276 | 3469 ft | 0 kts | 206° |
| 2026-05-08 18:01 | -15.86618 | -47.92286 | 3469 ft | 2 kts | 272° |
| 2026-05-08 18:01 | -15.86593 | -47.92312 | 3463 ft | 14 kts | 323° |
| 2026-05-08 18:02 | -15.86530 | -47.92400 | 3468 ft | 16 kts | 278° |
| 2026-05-08 18:02 | -15.86535 | -47.92513 | 3466 ft | 15 kts | 267° |
| 2026-05-08 18:02 | -15.86543 | -47.92621 | 3464 ft | 15 kts | 265° |
| 2026-05-08 18:02 | -15.86547 | -47.92729 | 3462 ft | 16 kts | 286° |
| 2026-05-08 18:03 | -15.86481 | -47.92768 | 3459 ft | 7 kts | 0° |
| 2026-05-08 18:03 | -15.86418 | -47.92761 | 3459 ft | 11 kts | 21° |
| 2026-05-08 18:03 | -15.86353 | -47.92717 | 3459 ft | 11 kts | 65° |
| 2026-05-08 18:03 | -15.86351 | -47.92683 | 3459 ft | 0 kts | 88° |
| 2026-05-08 18:04 | -15.86348 | -47.92635 | 3460 ft | 30 kts | 85° |
| 2026-05-08 18:05 | -15.86319 | -47.92179 | 3465 ft | 96 kts | 86° |
| 2026-05-08 18:05 | -15.86261 | -47.91282 | 3464 ft | 151 kts | 86° |
| 2026-05-08 18:05 | -15.86195 | -47.90056 | 3699 ft | 179 kts | 87° |
| 2026-05-08 18:05 | -15.86156 | -47.88739 | 4356 ft | 193 kts | 93° |
| 2026-05-08 18:06 | -15.86822 | -47.87506 | 4659 ft | 214 kts | 145° |
| 2026-05-08 18:06 | -15.88163 | -47.86775 | 5329 ft | 218 kts | 153° |
| 2026-05-08 18:06 | -15.89723 | -47.86422 | 5520 ft | 243 kts | 174° |
| 2026-05-08 18:06 | -15.91469 | -47.86283 | 5866 ft | 260 kts | 173° |
| 2026-05-08 18:07 | -15.93282 | -47.86104 | 6431 ft | 266 kts | 172° |
| 2026-05-08 18:07 | -15.95133 | -47.85898 | 7203 ft | 266 kts | 173° |
| 2026-05-08 18:07 | -15.96976 | -47.85680 | 8001 ft | 268 kts | 173° |
| 2026-05-08 18:07 | -15.98841 | -47.85449 | 8680 ft | 269 kts | 173° |
| 2026-05-08 18:08 | -16.00719 | -47.85212 | 8994 ft | 273 kts | 173° |
| 2026-05-08 18:08 | -16.02614 | -47.84974 | 9056 ft | 278 kts | 173° |
| 2026-05-08 18:08 | -16.04528 | -47.85085 | 9057 ft | 277 kts | 200° |
| 2026-05-08 18:08 | -16.06132 | -47.86133 | 9073 ft | 271 kts | 230° |
| 2026-05-08 18:09 | -16.07068 | -47.87801 | 9315 ft | 268 kts | 254° |
| 2026-05-08 18:09 | -16.07387 | -47.89700 | 10016 ft | 268 kts | 268° |
| 2026-05-08 18:09 | -16.07489 | -47.91649 | 10700 ft | 272 kts | 269° |
| 2026-05-08 18:09 | -16.07588 | -47.93631 | 11347 ft | 277 kts | 269° |
| 2026-05-08 18:10 | -16.07701 | -47.95649 | 12000 ft | 282 kts | 268° |
| 2026-05-08 18:10 | -16.07840 | -47.97693 | 12671 ft | 286 kts | 263° |
| 2026-05-08 18:10 | -16.08512 | -47.99646 | 13341 ft | 290 kts | 242° |
| 2026-05-08 18:10 | -16.09507 | -48.01482 | 13995 ft | 294 kts | 241° |
| 2026-05-08 18:11 | -16.10525 | -48.03361 | 14505 ft | 300 kts | 241° |
| 2026-05-08 18:11 | -16.11542 | -48.05258 | 15146 ft | 302 kts | 242° |
| 2026-05-08 18:11 | -16.12563 | -48.07182 | 15722 ft | 305 kts | 242° |
| 2026-05-08 18:11 | -16.13583 | -48.09115 | 16383 ft | 306 kts | 242° |
| 2026-05-08 18:12 | -16.14613 | -48.11072 | 16997 ft | 308 kts | 241° |
| 2026-05-08 18:12 | -16.15650 | -48.13045 | 17557 ft | 313 kts | 241° |
| 2026-05-08 18:12 | -16.16701 | -48.15043 | 18143 ft | 316 kts | 241° |
| 2026-05-08 18:12 | -16.17761 | -48.17060 | 18650 ft | 320 kts | 241° |
| 2026-05-08 18:13 | -16.18825 | -48.19086 | 19241 ft | 319 kts | 241° |
| 2026-05-08 18:13 | -16.19891 | -48.21117 | 19771 ft | 321 kts | 241° |
| 2026-05-08 18:13 | -16.20966 | -48.23163 | 20289 ft | 324 kts | 242° |
| 2026-05-08 18:13 | -16.22037 | -48.25203 | 20803 ft | 326 kts | 242° |
| 2026-05-08 18:14 | -16.23126 | -48.27278 | 21346 ft | 327 kts | 242° |
| 2026-05-08 18:14 | -16.24235 | -48.29350 | 21877 ft | 329 kts | 238° |
| 2026-05-08 18:14 | -16.25658 | -48.31238 | 22350 ft | 332 kts | 229° |
| 2026-05-08 18:14 | -16.27233 | -48.33012 | 22866 ft | 335 kts | 227° |
| 2026-05-08 18:15 | -16.28838 | -48.34780 | 23357 ft | 338 kts | 228° |
| 2026-05-08 18:15 | -16.30456 | -48.36568 | 23794 ft | 340 kts | 228° |
| 2026-05-08 18:15 | -16.32074 | -48.38375 | 24248 ft | 340 kts | 228° |
| 2026-05-08 18:15 | -16.33680 | -48.40185 | 24708 ft | 341 kts | 229° |
| 2026-05-08 18:16 | -16.35282 | -48.42003 | 25201 ft | 340 kts | 229° |
| 2026-05-08 18:16 | -16.36879 | -48.43825 | 25623 ft | 342 kts | 229° |
| 2026-05-08 18:16 | -16.38489 | -48.45665 | 26013 ft | 345 kts | 229° |
| 2026-05-08 18:16 | -16.40105 | -48.47515 | 26444 ft | 345 kts | 229° |
| 2026-05-08 18:17 | -16.41713 | -48.49357 | 26987 ft | 342 kts | 229° |
| 2026-05-08 18:17 | -16.43299 | -48.51173 | 27588 ft | 337 kts | 229° |
| 2026-05-08 18:17 | -16.44869 | -48.52973 | 28092 ft | 335 kts | 229° |
| 2026-05-08 18:17 | -16.46437 | -48.54771 | 28524 ft | 335 kts | 229° |
| 2026-05-08 18:18 | -16.47998 | -48.56561 | 29005 ft | 333 kts | 229° |
| 2026-05-08 18:18 | -16.49547 | -48.58338 | 29500 ft | 330 kts | 229° |
| 2026-05-08 18:18 | -16.51085 | -48.60103 | 29957 ft | 328 kts | 229° |
| 2026-05-08 18:18 | -16.52619 | -48.61863 | 30316 ft | 328 kts | 230° |
| 2026-05-08 18:19 | -16.54148 | -48.63618 | 30644 ft | 327 kts | 230° |
| 2026-05-08 18:19 | -16.55542 | -48.65476 | 30950 ft | 324 kts | 242° |
| 2026-05-08 18:19 | -16.56608 | -48.67546 | 31219 ft | 324 kts | 245° |
| 2026-05-08 18:19 | -16.57617 | -48.69654 | 31500 ft | 324 kts | 245° |
| 2026-05-08 18:20 | -16.58615 | -48.71765 | 31792 ft | 325 kts | 245° |
| 2026-05-08 18:20 | -16.59617 | -48.73877 | 32059 ft | 325 kts | 245° |
| 2026-05-08 18:20 | -16.60626 | -48.75987 | 32306 ft | 326 kts | 245° |
| 2026-05-08 18:20 | -16.61647 | -48.78108 | 32522 ft | 328 kts | 245° |
| 2026-05-08 18:21 | -16.62681 | -48.80243 | 32727 ft | 330 kts | 245° |
| 2026-05-08 18:21 | -16.63723 | -48.82388 | 32912 ft | 333 kts | 245° |
| 2026-05-08 18:21 | -16.64764 | -48.84525 | 33099 ft | 335 kts | 245° |
| 2026-05-08 18:21 | -16.65825 | -48.86702 | 33313 ft | 337 kts | 245° |
| 2026-05-08 18:22 | -16.66906 | -48.88917 | 33539 ft | 339 kts | 245° |
| 2026-05-08 18:22 | -16.67978 | -48.91112 | 33775 ft | 340 kts | 245° |
| 2026-05-08 18:22 | -16.69050 | -48.93310 | 34004 ft | 341 kts | 245° |
| 2026-05-08 18:22 | -16.70133 | -48.95529 | 34110 ft | 346 kts | 245° |
| 2026-05-08 18:23 | -16.71243 | -48.97808 | 33941 ft | 360 kts | 245° |
| 2026-05-08 18:23 | -16.72395 | -49.00173 | 33806 ft | 372 kts | 245° |
| 2026-05-08 18:23 | -16.74765 | -49.05035 | 33900 ft | 385 kts | 245° |
| 2026-05-08 18:24 | -16.77230 | -49.10094 | 34013 ft | 397 kts | 245° |
| 2026-05-08 18:24 | -16.79773 | -49.15317 | 34117 ft | 409 kts | 245° |
| 2026-05-08 18:25 | -16.82384 | -49.20685 | 34199 ft | 420 kts | 245° |
| 2026-05-08 18:25 | -16.85067 | -49.26204 | 34265 ft | 431 kts | 245° |
| 2026-05-08 18:26 | -16.87806 | -49.31844 | 34298 ft | 440 kts | 245° |
| 2026-05-08 18:26 | -16.90596 | -49.37593 | 34470 ft | 446 kts | 245° |
| 2026-05-08 18:27 | -16.92002 | -49.40491 | 34697 ft | 445 kts | 245° |
| 2026-05-08 18:27 | -16.92926 | -49.42396 | 34901 ft | 443 kts | 245° |
| 2026-05-08 18:27 | -16.94774 | -49.46208 | 35359 ft | 437 kts | 245° |
| 2026-05-08 18:27 | -16.96144 | -49.49034 | 35660 ft | 434 kts | 245° |
| 2026-05-08 18:28 | -16.97503 | -49.51842 | 35909 ft | 433 kts | 245° |
| 2026-05-08 18:28 | -16.98864 | -49.54656 | 35918 ft | 435 kts | 245° |
| 2026-05-08 18:28 | -17.01587 | -49.60291 | 35924 ft | 433 kts | 245° |
| 2026-05-08 18:29 | -17.04272 | -49.65849 | 35923 ft | 430 kts | 245° |
| 2026-05-08 18:29 | -17.06959 | -49.71416 | 35926 ft | 428 kts | 245° |
| 2026-05-08 18:30 | -17.09636 | -49.76969 | 35936 ft | 427 kts | 246° |
| 2026-05-08 18:30 | -17.12306 | -49.82511 | 35924 ft | 427 kts | 246° |
| 2026-05-08 18:31 | -17.14977 | -49.88060 | 35924 ft | 427 kts | 245° |
| 2026-05-08 18:31 | -17.17650 | -49.93618 | 35926 ft | 428 kts | 246° |
| 2026-05-08 18:32 | -17.19939 | -49.99344 | 35925 ft | 426 kts | 259° |
| 2026-05-08 18:32 | -17.20428 | -50.05484 | 35920 ft | 425 kts | 275° |
| 2026-05-08 18:33 | -17.19524 | -50.11589 | 35920 ft | 426 kts | 279° |
| 2026-05-08 18:33 | -17.18521 | -50.17701 | 35925 ft | 426 kts | 279° |
| 2026-05-08 18:34 | -17.17539 | -50.23817 | 35922 ft | 426 kts | 279° |
| 2026-05-08 18:34 | -17.16577 | -50.29933 | 35924 ft | 426 kts | 279° |
| 2026-05-08 18:35 | -17.15620 | -50.36064 | 35924 ft | 426 kts | 278° |
| 2026-05-08 18:35 | -17.14666 | -50.42174 | 35926 ft | 426 kts | 278° |
| 2026-05-08 18:36 | -17.13709 | -50.48288 | 35918 ft | 426 kts | 279° |
| 2026-05-08 18:36 | -17.12749 | -50.54405 | 35935 ft | 426 kts | 279° |
| 2026-05-08 18:37 | -17.11786 | -50.60531 | 35930 ft | 427 kts | 279° |
| 2026-05-08 18:37 | -17.10821 | -50.66656 | 35941 ft | 427 kts | 279° |
| 2026-05-08 18:38 | -17.09859 | -50.72748 | 35927 ft | 427 kts | 279° |
| 2026-05-08 18:38 | -17.08892 | -50.78863 | 35935 ft | 426 kts | 279° |
| 2026-05-08 18:39 | -17.07924 | -50.84968 | 35934 ft | 426 kts | 279° |
| 2026-05-08 18:39 | -17.06955 | -50.91067 | 35944 ft | 425 kts | 279° |
| 2026-05-08 18:40 | -17.06143 | -50.96174 | 35940 ft | 425 kts | 279° |
| 2026-05-08 18:40 | -17.05172 | -51.02261 | 35940 ft | 424 kts | 279° |
| 2026-05-08 18:41 | -17.04203 | -51.08333 | 35939 ft | 423 kts | 279° |
| 2026-05-08 18:41 | -17.03231 | -51.14402 | 35942 ft | 423 kts | 279° |
| 2026-05-08 18:42 | -17.02258 | -51.20474 | 35937 ft | 424 kts | 279° |
| 2026-05-08 18:42 | -17.01281 | -51.26553 | 35946 ft | 425 kts | 279° |
| 2026-05-08 18:43 | -17.00300 | -51.32649 | 35937 ft | 426 kts | 279° |
| 2026-05-08 18:43 | -16.99322 | -51.38710 | 35942 ft | 426 kts | 279° |
| 2026-05-08 18:44 | -16.98336 | -51.44813 | 35944 ft | 426 kts | 279° |
| 2026-05-08 18:44 | -16.97348 | -51.50918 | 35939 ft | 426 kts | 279° |
| 2026-05-08 18:45 | -16.96358 | -51.57019 | 35944 ft | 426 kts | 279° |
| 2026-05-08 18:45 | -16.95366 | -51.63121 | 35933 ft | 425 kts | 279° |
| 2026-05-08 18:46 | -16.94374 | -51.69209 | 35941 ft | 425 kts | 279° |
| 2026-05-08 18:46 | -16.93380 | -51.75304 | 35932 ft | 425 kts | 279° |
| 2026-05-08 18:47 | -16.92384 | -51.81398 | 35937 ft | 425 kts | 279° |
| 2026-05-08 18:47 | -16.91387 | -51.87482 | 35925 ft | 425 kts | 279° |
| 2026-05-08 18:48 | -16.90387 | -51.93574 | 35938 ft | 426 kts | 279° |
| 2026-05-08 18:48 | -16.89385 | -51.99673 | 35938 ft | 426 kts | 279° |
| 2026-05-08 18:49 | -16.88379 | -52.05777 | 35934 ft | 427 kts | 279° |
| 2026-05-08 18:49 | -16.87372 | -52.11877 | 35932 ft | 427 kts | 279° |
| 2026-05-08 18:50 | -16.86363 | -52.17982 | 35926 ft | 427 kts | 279° |
| 2026-05-08 18:50 | -16.85350 | -52.24092 | 35924 ft | 427 kts | 279° |
| 2026-05-08 18:51 | -16.84337 | -52.30196 | 35918 ft | 427 kts | 279° |
| 2026-05-08 18:51 | -16.83323 | -52.36295 | 35923 ft | 426 kts | 279° |
| 2026-05-08 18:52 | -16.82307 | -52.42395 | 35914 ft | 426 kts | 279° |
| 2026-05-08 18:52 | -16.81295 | -52.48453 | 35918 ft | 426 kts | 279° |
| 2026-05-08 18:53 | -16.80276 | -52.54548 | 35921 ft | 426 kts | 279° |
| 2026-05-08 18:53 | -16.79256 | -52.60639 | 35900 ft | 426 kts | 279° |
| 2026-05-08 18:54 | -16.78232 | -52.66736 | 35911 ft | 427 kts | 279° |
| 2026-05-08 18:54 | -16.77207 | -52.72833 | 35918 ft | 427 kts | 279° |
| 2026-05-08 18:55 | -16.75663 | -52.81995 | 35908 ft | 427 kts | 279° |
| 2026-05-08 18:56 | -16.74631 | -52.88101 | 35911 ft | 427 kts | 279° |
| 2026-05-08 18:56 | -16.73598 | -52.94206 | 35905 ft | 427 kts | 279° |
| 2026-05-08 18:57 | -16.72564 | -53.00305 | 35914 ft | 427 kts | 279° |
| 2026-05-08 18:57 | -16.71528 | -53.06405 | 35911 ft | 427 kts | 279° |
| 2026-05-08 18:58 | -16.70652 | -53.12517 | 35915 ft | 426 kts | 275° |
| 2026-05-08 18:58 | -16.70182 | -53.18676 | 35917 ft | 426 kts | 274° |
| 2026-05-08 18:59 | -16.69734 | -53.24834 | 35915 ft | 426 kts | 274° |
| 2026-05-08 18:59 | -16.69267 | -53.30992 | 35918 ft | 426 kts | 274° |
| 2026-05-08 19:00 | -16.68785 | -53.37158 | 35915 ft | 426 kts | 275° |
| 2026-05-08 19:00 | -16.68302 | -53.43275 | 35908 ft | 426 kts | 274° |
| 2026-05-08 19:01 | -16.67811 | -53.49471 | 35917 ft | 426 kts | 274° |
| 2026-05-08 19:01 | -16.67320 | -53.55631 | 35910 ft | 427 kts | 274° |
| 2026-05-08 19:02 | -16.66832 | -53.61749 | 35900 ft | 420 kts | 274° |
| 2026-05-08 19:02 | -16.66593 | -53.64732 | 35892 ft | 406 kts | 274° |
| 2026-05-08 19:02 | -16.66361 | -53.67623 | 35892 ft | 396 kts | 274° |
| 2026-05-08 19:03 | -16.65903 | -53.73317 | 35910 ft | 394 kts | 274° |
| 2026-05-08 19:03 | -16.65444 | -53.79011 | 35919 ft | 394 kts | 274° |
| 2026-05-08 19:04 | -16.64982 | -53.84714 | 35913 ft | 395 kts | 274° |
| 2026-05-08 19:04 | -16.64518 | -53.90429 | 35906 ft | 395 kts | 274° |
| 2026-05-08 19:05 | -16.64052 | -53.96145 | 35903 ft | 396 kts | 274° |
| 2026-05-08 19:05 | -16.63583 | -54.01868 | 35907 ft | 396 kts | 275° |
| 2026-05-08 19:06 | -16.63112 | -54.07611 | 35892 ft | 397 kts | 275° |
| 2026-05-08 19:06 | -16.62639 | -54.13357 | 35898 ft | 397 kts | 274° |
| 2026-05-08 19:07 | -16.62165 | -54.19099 | 35891 ft | 397 kts | 275° |
| 2026-05-08 19:07 | -16.61690 | -54.24833 | 35882 ft | 397 kts | 275° |
| 2026-05-08 19:08 | -16.61212 | -54.30568 | 35884 ft | 397 kts | 275° |
| 2026-05-08 19:08 | -16.60734 | -54.36296 | 35879 ft | 396 kts | 275° |
| 2026-05-08 19:09 | -16.60254 | -54.42024 | 35871 ft | 396 kts | 275° |
| 2026-05-08 19:09 | -16.59773 | -54.47752 | 35878 ft | 396 kts | 275° |
| 2026-05-08 19:09 | -16.59532 | -54.50619 | 35585 ft | 401 kts | 275° |
| 2026-05-08 19:10 | -16.59287 | -54.53518 | 35129 ft | 401 kts | 275° |
| 2026-05-08 19:10 | -16.59043 | -54.56416 | 34579 ft | 402 kts | 275° |
| 2026-05-08 19:10 | -16.58797 | -54.59321 | 34018 ft | 403 kts | 275° |
| 2026-05-08 19:10 | -16.58545 | -54.62235 | 33365 ft | 405 kts | 277° |
| 2026-05-08 19:11 | -16.57893 | -54.65090 | 32651 ft | 408 kts | 291° |
| 2026-05-08 19:11 | -16.56618 | -54.67762 | 31879 ft | 414 kts | 297° |
| 2026-05-08 19:11 | -16.55235 | -54.70407 | 31179 ft | 417 kts | 298° |
| 2026-05-08 19:11 | -16.53835 | -54.73058 | 30555 ft | 419 kts | 298° |
| 2026-05-08 19:12 | -16.52431 | -54.75729 | 29882 ft | 422 kts | 298° |
| 2026-05-08 19:12 | -16.51029 | -54.78419 | 29109 ft | 423 kts | 298° |
| 2026-05-08 19:12 | -16.49631 | -54.81121 | 28373 ft | 424 kts | 298° |
| 2026-05-08 19:12 | -16.48233 | -54.83834 | 27634 ft | 425 kts | 298° |
| 2026-05-08 19:13 | -16.46837 | -54.86554 | 26885 ft | 426 kts | 298° |
| 2026-05-08 19:13 | -16.45437 | -54.89281 | 26125 ft | 428 kts | 298° |
| 2026-05-08 19:13 | -16.44027 | -54.92028 | 25316 ft | 431 kts | 298° |
| 2026-05-08 19:13 | -16.42608 | -54.94793 | 24484 ft | 435 kts | 298° |
| 2026-05-08 19:14 | -16.41173 | -54.97586 | 23609 ft | 439 kts | 298° |
| 2026-05-08 19:14 | -16.39842 | -55.00177 | 22657 ft | 444 kts | 298° |
| 2026-05-08 19:14 | -16.38383 | -55.03013 | 21927 ft | 441 kts | 298° |
| 2026-05-08 19:14 | -16.36942 | -55.05814 | 21231 ft | 437 kts | 298° |
| 2026-05-08 19:15 | -16.35512 | -55.08592 | 20560 ft | 432 kts | 298° |
| 2026-05-08 19:15 | -16.34098 | -55.11338 | 19897 ft | 429 kts | 298° |
| 2026-05-08 19:15 | -16.32698 | -55.14058 | 19221 ft | 426 kts | 298° |
| 2026-05-08 19:15 | -16.31301 | -55.16768 | 18562 ft | 423 kts | 298° |
| 2026-05-08 19:16 | -16.29911 | -55.19464 | 17855 ft | 420 kts | 298° |
| 2026-05-08 19:16 | -16.28536 | -55.22133 | 17142 ft | 417 kts | 298° |
| 2026-05-08 19:16 | -16.27174 | -55.24773 | 16481 ft | 412 kts | 298° |
| 2026-05-08 19:16 | -16.26281 | -55.26503 | 16050 ft | 409 kts | 298° |
| 2026-05-08 19:17 | -16.24939 | -55.29105 | 15365 ft | 405 kts | 298° |
| 2026-05-08 19:17 | -16.23596 | -55.31705 | 14483 ft | 409 kts | 298° |
| 2026-05-08 19:17 | -16.22265 | -55.34281 | 13885 ft | 401 kts | 299° |
| 2026-05-08 19:17 | -16.20937 | -55.36850 | 13212 ft | 399 kts | 298° |
| 2026-05-08 19:18 | -16.19629 | -55.39380 | 12379 ft | 398 kts | 298° |
| 2026-05-08 19:18 | -16.18332 | -55.41890 | 11812 ft | 391 kts | 298° |
| 2026-05-08 19:18 | -16.17054 | -55.44360 | 11263 ft | 386 kts | 298° |
| 2026-05-08 19:18 | -16.15810 | -55.46766 | 11074 ft | 371 kts | 298° |
| 2026-05-08 19:19 | -16.14610 | -55.49086 | 10892 ft | 357 kts | 298° |
| 2026-05-08 19:19 | -16.13453 | -55.51322 | 10732 ft | 345 kts | 298° |
| 2026-05-08 19:19 | -16.12336 | -55.53480 | 10592 ft | 333 kts | 298° |
| 2026-05-08 19:19 | -16.11254 | -55.55569 | 10456 ft | 322 kts | 298° |
| 2026-05-08 19:20 | -16.10225 | -55.57556 | 10316 ft | 303 kts | 298° |
| 2026-05-08 19:20 | -16.09576 | -55.58808 | 10218 ft | 292 kts | 298° |
| 2026-05-08 19:20 | -16.08334 | -55.61202 | 10060 ft | 271 kts | 298° |
| 2026-05-08 19:20 | -16.07462 | -55.62884 | 9921 ft | 258 kts | 298° |
| 2026-05-08 19:21 | -16.06615 | -55.64516 | 9825 ft | 260 kts | 298° |
| 2026-05-08 19:21 | -16.05738 | -55.66204 | 9518 ft | 269 kts | 298° |
| 2026-05-08 19:21 | -16.04844 | -55.67927 | 9243 ft | 271 kts | 298° |
| 2026-05-08 19:21 | -16.03961 | -55.69629 | 8945 ft | 271 kts | 299° |
| 2026-05-08 19:22 | -16.03058 | -55.71369 | 8662 ft | 270 kts | 299° |
| 2026-05-08 19:22 | -16.02170 | -55.73080 | 8378 ft | 268 kts | 299° |
| 2026-05-08 19:22 | -16.01286 | -55.74782 | 8083 ft | 267 kts | 300° |
| 2026-05-08 19:22 | -16.00408 | -55.76472 | 7829 ft | 265 kts | 300° |
| 2026-05-08 19:23 | -15.99531 | -55.78161 | 7553 ft | 266 kts | 300° |
| 2026-05-08 19:23 | -15.98653 | -55.79852 | 7267 ft | 265 kts | 300° |
| 2026-05-08 19:23 | -15.97780 | -55.81531 | 6994 ft | 264 kts | 300° |
| 2026-05-08 19:23 | -15.96908 | -55.83207 | 6723 ft | 263 kts | 301° |
| 2026-05-08 19:24 | -15.96041 | -55.84875 | 6446 ft | 262 kts | 301° |
| 2026-05-08 19:24 | -15.95174 | -55.86540 | 6170 ft | 262 kts | 301° |
| 2026-05-08 19:24 | -15.94310 | -55.88203 | 5892 ft | 261 kts | 301° |
| 2026-05-08 19:24 | -15.93448 | -55.89859 | 5623 ft | 260 kts | 301° |
| 2026-05-08 19:25 | -15.92591 | -55.91507 | 5331 ft | 256 kts | 301° |
| 2026-05-08 19:25 | -15.91756 | -55.93111 | 5067 ft | 248 kts | 301° |
| 2026-05-08 19:25 | -15.90947 | -55.94667 | 4795 ft | 242 kts | 301° |
| 2026-05-08 19:25 | -15.90153 | -55.96191 | 4580 ft | 239 kts | 301° |
| 2026-05-08 19:26 | -15.89354 | -55.97723 | 4378 ft | 242 kts | 301° |
| 2026-05-08 19:26 | -15.88447 | -55.99173 | 4183 ft | 239 kts | 319° |
| 2026-05-08 19:26 | -15.87026 | -56.00042 | 3966 ft | 237 kts | 335° |
| 2026-05-08 19:26 | -15.85557 | -56.00809 | 3733 ft | 236 kts | 333° |
| 2026-05-08 19:27 | -15.84102 | -56.01606 | 3494 ft | 236 kts | 333° |
| 2026-05-08 19:27 | -15.82645 | -56.02392 | 3263 ft | 236 kts | 333° |
| 2026-05-08 19:27 | -15.81190 | -56.03171 | 2991 ft | 234 kts | 333° |
| 2026-05-08 19:27 | -15.79768 | -56.03931 | 2785 ft | 223 kts | 333° |
| 2026-05-08 19:28 | -15.78448 | -56.04637 | 2702 ft | 202 kts | 333° |
| 2026-05-08 19:28 | -15.77258 | -56.05273 | 2709 ft | 187 kts | 333° |
| 2026-05-08 19:28 | -15.76129 | -56.05878 | 2623 ft | 175 kts | 334° |
| 2026-05-08 19:28 | -15.75068 | -56.06445 | 2411 ft | 168 kts | 333° |
| 2026-05-08 19:29 | -15.74062 | -56.06982 | 2215 ft | 161 kts | 334° |
| 2026-05-08 19:29 | -15.73094 | -56.07500 | 2069 ft | 152 kts | 334° |
| 2026-05-08 19:29 | -15.72157 | -56.08002 | 1851 ft | 149 kts | 334° |
| 2026-05-08 19:29 | -15.71234 | -56.08494 | 1641 ft | 147 kts | 334° |
| 2026-05-08 19:30 | -15.70338 | -56.08975 | 1459 ft | 143 kts | 334° |
| 2026-05-08 19:30 | -15.69464 | -56.09440 | 1294 ft | 141 kts | 334° |
| 2026-05-08 19:30 | -15.68595 | -56.09913 | 990 ft | 146 kts | 332° |
| 2026-05-08 19:30 | -15.67668 | -56.10421 | 806 ft | 154 kts | 333° |
| 2026-05-08 19:31 | -15.66725 | -56.10912 | 647 ft | 147 kts | 333° |
| 2026-05-08 19:31 | -15.65898 | -56.11351 | 596 ft | 94 kts | 332° |
| 2026-05-08 19:31 | -15.65501 | -56.11566 | 597 ft | 44 kts | 332° |
| 2026-05-08 19:31 | -15.65238 | -56.11706 | 597 ft | 18 kts | 328° |
| 2026-05-08 19:32 | -15.65219 | -56.11822 | 596 ft | 19 kts | 285° |
| 2026-05-08 19:32 | -15.65086 | -56.11913 | 596 ft | 27 kts | 333° |
| 2026-05-08 19:32 | -15.64974 | -56.11971 | 595 ft | 14 kts | 333° |
| 2026-05-08 19:32 | -15.64919 | -56.12027 | 595 ft | 10 kts | 260° |
| 2026-05-08 19:33 | -15.64926 | -56.12041 | 595 ft | 0 kts | 246° |